Latest Weather Observations for Roxby Downs

IDS60801

Issued at 4:01 am CDT Sunday 21 October 2018 (issued every 10 minutes, with the page automatically refreshed every 10 minutes)

About weather observations | Map of weather stations | Latest weather observations for SA | Other Formats
Station Details ID: 016096 Name: OLYMPIC DAM AERODROME Lat: -30.48 Lon: 136.88 Height: 98.5 m
Data from the previous 72 hours. | See also: Recent months at Roxby Downs
Date/Time
CDT
Temp
°C
App
Temp
°C
Dew
Point
°C
Rel
Hum
%
Delta-T
°C
Wind Press
QNH
hPa
Press
MSL
hPa
Rain since
9am
mm
Dir  Spd
km/h
Gust
km/h
Spd
kts
Gust
kts
21/04:00am 7.5 3.5 -5.2 40 4.4 SSE 7 9 4 5 1018.7 1018.4 0.0
21/03:30am 7.9 4.2 -4.2 42 4.3 SSE 6 7 3 4 1018.7 1018.4 0.0
21/03:00am 8.7 4.9 -4.1 40 4.6 SSE 7 9 4 5 1018.7 1018.4 0.0
21/02:30am 9.2 5.4 -3.7 40 4.7 SSE 7 9 4 5 1018.8 1018.5 0.0
21/02:00am 10.2 6.7 -1.5 44 4.6 S 7 9 4 5 1019.0 1018.7 0.0
21/01:30am 11.2 7.7 -1.5 41 5.0 SSW 7 7 4 4 1019.5 1019.2 0.0
21/01:00am 13.1 9.7 -0.5 39 5.6 SSE 7 7 4 4 1019.7 1019.4 0.0
21/12:30am 14.8 11.2 0.6 38 6.1 S 9 11 5 6 1020.0 1019.7 0.0
21/12:00am 14.3 10.5 -0.5 36 6.1 SSW 9 9 5 5 1020.2 1019.9 0.0
 
Date/Time
CDT
Temp
°C
App
Temp
°C
Dew
Point
°C
Rel
Hum
%
Delta-T
°C
Wind Press
QNH
hPa
Press
MSL
hPa
Rain since
9am
mm
Dir  Spd
km/h
Gust
km/h
Spd
kts
Gust
kts
20/11:30pm 15.0 11.3 -0.3 35 6.4 S 9 11 5 6 1020.3 1020.0 0.0
20/11:00pm 14.6 11.9 0.5 38 6.0 SSW 4 6 2 3 1020.3 1020.0 0.0
20/10:30pm 16.2 13.0 0.7 35 6.7 SW 7 9 4 5 1020.3 1020.0 0.0
20/10:00pm 16.9 13.6 -1.2 29 7.6 SSW 6 7 3 4 1020.3 1020.0 0.0
20/09:30pm 18.6 15.4 0.7 30 7.9 SSW 7 9 4 5 1020.1 1019.8 0.0
20/09:00pm 20.1 16.3 1.5 29 8.5 S 11 11 6 6 1019.9 1019.6 0.0
20/08:30pm 21.1 17.6 1.4 27 9.0 S 9 15 5 8 1019.6 1019.3 0.0
20/08:00pm 22.0 17.8 1.6 26 9.5 SSE 13 17 7 9 1019.1 1018.8 0.0
20/07:30pm 22.8 18.1 1.2 24 10.0 S 15 19 8 10 1018.8 1018.5 0.0
20/07:00pm 23.4 18.1 1.7 24 10.2 SSW 19 28 10 15 1018.4 1018.1 0.0
20/06:30pm 24.0 18.0 1.0 22 10.7 SSW 22 30 12 16 1018.1 1017.8 0.0
20/06:00pm 24.5 18.8 0.8 21 11.1 SSE 20 32 11 17 1018.0 1017.7 0.0
20/05:30pm 24.1 18.5 1.1 22 10.8 S 20 39 11 21 1017.9 1017.6 0.0
20/05:00pm 24.7 19.2 1.6 22 11.0 S 20 32 11 17 1017.9 1017.6 0.0
20/04:30pm 23.8 17.6 2.0 24 10.3 SSW 24 35 13 19 1018.1 1017.8 0.0
20/04:00pm 24.5 18.8 2.6 24 10.6 SSW 22 35 12 19 1018.4 1018.1 0.0
20/03:30pm 23.3 17.5 2.2 25 10.0 S 22 32 12 17 1018.7 1018.4 0.0
20/03:00pm 24.5 19.2 3.2 25 10.4 SW 20 33 11 18 1019.1 1018.8 0.0
20/02:30pm 22.3 16.2 2.9 28 9.3 SSE 24 44 13 24 1019.5 1019.2 0.0
20/02:00pm 22.2 17.0 3.3 29 9.1 S 20 35 11 19 1020.0 1019.7 0.0
20/01:30pm 21.2 15.1 3.0 30 8.6 SW 24 41 13 22 1020.4 1020.1 0.0
20/01:00pm 20.6 15.2 2.4 30 8.5 SW 20 35 11 19 1020.5 1020.2 0.0
20/12:30pm 19.7 13.6 2.6 32 7.9 SSW 24 37 13 20 1020.8 1020.5 0.0
20/12:00pm 19.5 13.9 3.2 34 7.7 SSW 22 35 12 19 1021.2 1020.9 0.0
20/11:30am 19.4 13.0 3.2 34 7.6 S 26 39 14 21 1021.3 1021.0 0.0
20/11:00am 18.2 11.8 3.3 37 7.0 S 26 37 14 20 1021.3 1021.0 0.0
20/10:30am 18.1 11.9 4.3 40 6.6 S 26 37 14 20 1021.5 1021.2 0.0
20/10:00am 17.1 10.6 4.8 44 5.9 S 28 41 15 22 1021.3 1021.0 0.0
20/09:30am 16.1 9.8 5.7 50 5.0 S 28 39 15 21 1021.0 1020.7 0.0
20/09:00am 15.6 9.6 7.1 57 4.2 S 28 41 15 22 1020.8 1020.5 0.0
20/08:30am 14.6 9.3 6.9 60 3.8 S 24 37 13 20 1020.4 1020.1 0.0
20/08:00am 13.6 9.2 7.2 65 3.1 SSW 20 30 11 16 1020.4 1020.1 0.0
20/07:30am 12.6 9.3 6.6 67 2.9 SSW 13 17 7 9 1020.0 1019.7 0.0
20/07:00am 11.6 8.2 6.1 69 2.6 SSW 13 15 7 8 1019.7 1019.4 0.0
20/06:30am 11.9 8.2 6.2 68 2.7 SSW 15 19 8 10 1019.4 1019.1 0.0
20/06:00am 12.4 8.3 6.2 66 2.9 SSW 17 20 9 11 1018.9 1018.6 0.0
20/05:30am 12.7 8.2 6.1 64 3.1 SSW 19 24 10 13 1018.6 1018.3 0.0
20/05:00am 12.9 8.3 5.8 62 3.4 SW 19 26 10 14 1018.4 1018.1 0.0
20/04:30am 13.4 8.3 6.0 61 3.5 SSW 22 32 12 17 1018.1 1017.8 0.0
20/04:00am 13.7 8.1 5.6 58 3.8 SSW 24 35 13 19 1017.7 1017.4 0.0
20/03:30am 14.1 7.8 5.5 56 4.1 SSW 28 37 15 20 1017.4 1017.1 0.0
20/03:00am 14.5 7.4 5.6 55 4.2 SSW 32 43 17 23 1017.2 1016.9 0.0
20/02:30am 14.9 9.2 6.5 57 4.1 SSW 26 37 14 20 1017.0 1016.7 0.0
20/02:00am 15.4 8.8 6.2 54 4.5 SSW 30 44 16 24 1017.0 1016.7 0.0
20/01:30am 15.9 9.6 5.5 50 5.0 SSW 28 37 15 20 1017.1 1016.8 0.0
20/01:00am 16.4 9.0 5.1 47 5.4 SSW 33 48 18 26 1017.0 1016.7 0.0
20/12:30am 17.1 8.8 6.0 48 5.4 SSW 39 54 21 29 1016.8 1016.5 0.0
20/12:00am 17.7 10.8 7.2 50 5.3 SSW 33 52 18 28 1016.4 1016.1 0.0
 
Date/Time
CDT
Temp
°C
App
Temp
°C
Dew
Point
°C
Rel
Hum
%
Delta-T
°C
Wind Press
QNH
hPa
Press
MSL
hPa
Rain since
9am
mm
Dir  Spd
km/h
Gust
km/h
Spd
kts
Gust
kts
19/11:44pm 17.9 10.2 7.3 50 5.4 SSW 37 56 20 30 1016.4 1016.1 0.0
19/11:30pm 18.1 10.2 7.8 51 5.3 SSW 39 50 21 27 1016.2 1015.9 0.0
19/11:00pm 19.0 11.8 7.8 48 5.8 SSW 35 52 19 28 1015.6 1015.4 0.0
19/10:30pm 19.6 11.6 7.4 45 6.2 SSW 39 57 21 31 1015.1 1014.8 0.0
19/10:00pm 20.2 11.3 6.9 42 6.8 SW 43 61 23 33 1014.7 1014.4 0.0
19/09:30pm 20.9 12.1 7.2 41 7.0 SW 43 61 23 33 1014.1 1013.8 0.0
19/09:15pm 21.2 12.4 7.1 40 7.3 SW 43 61 23 33 1013.6 1013.3 0.0
19/09:00pm 21.5 13.1 7.3 40 7.3 SW 41 57 22 31 1013.1 1012.8 0.0
19/08:34pm 22.2 13.6 6.4 36 8.1 SW 41 63 22 34 1012.3 1012.0 0.0
19/08:30pm 22.4 13.4 6.6 36 8.1 SW 43 57 23 31 1012.2 1011.9 0.0
19/08:15pm 22.8 13.9 7.0 36 8.2 SW 43 61 23 33 1011.8 1011.5 0.0
19/08:00pm 23.2 14.1 6.9 35 8.5 SW 44 61 24 33 1011.2 1010.9 0.0
19/07:51pm 23.6 16.0 7.7 36 8.4 SW 37 57 20 31 1010.9 1010.6 0.0
19/07:30pm 24.9 16.1 7.1 32 9.4 SW 43 57 23 31 1010.1 1009.8 0.0
19/07:09pm 25.8 17.6 6.4 29 10.1 SW 39 57 21 31 1009.5 1009.2 0.0
19/07:00pm 26.1 17.1 6.2 28 10.4 SW 43 57 23 31 1009.0 1008.7 0.0
19/06:30pm 27.6 19.0 6.4 26 11.2 SSW 41 57 22 31 1008.1 1007.8 0.0
19/06:00pm 29.4 21.1 6.1 23 12.4 SW 39 56 21 30 1007.3 1007.0 0.0
19/05:57pm 29.6 21.3 6.3 23 12.4 SW 39 57 21 31 1007.2 1006.9 0.0
19/05:45pm 30.7 25.2 5.9 21 13.2 WNW 24 54 13 29 1006.8 1006.5 0.0
19/05:30pm 34.4 28.4 -1.6 10 17.4 NNW 20 33 11 18 1006.3 1005.9 0.0
19/05:00pm 34.6 28.6 -1.4 10 17.4 NW 20 37 11 20 1006.1 1005.7 0.0
19/04:30pm 34.6 26.3 -1.4 10 17.5 NNW 32 44 17 24 1006.2 1005.8 0.0
19/04:00pm 34.2 25.5 -0.4 11 17.0 N 35 48 19 26 1006.2 1005.8 0.0
19/03:30pm 33.3 25.2 3.2 15 15.6 N 35 50 19 27 1006.6 1006.2 0.0
19/03:25pm 33.4 25.9 3.3 15 15.6 N 32 50 17 27 1006.6 1006.2 0.0
19/03:00pm 32.2 24.3 4.1 17 14.7 N 35 46 19 25 1007.0 1006.7 0.0
19/02:30pm 30.9 23.0 2.2 16 14.4 N 33 48 18 26 1007.0 1006.7 0.0
19/02:00pm 29.7 22.0 3.6 19 13.3 N 33 48 18 26 1007.7 1007.4 0.0
19/01:52pm 29.2 20.8 1.7 17 13.5 N 35 48 19 26 1007.7 1007.4 0.0
19/01:30pm 28.1 22.8 3.0 20 12.5 NNE 20 28 11 15 1008.3 1008.0 0.0
19/01:00pm 26.7 20.5 4.5 24 11.3 N 26 39 14 21 1009.1 1008.8 0.0
19/12:36pm 26.6 20.4 4.4 24 11.2 NNW 26 54 14 29 1010.2 1009.9 0.0
19/12:30pm 27.2 21.3 3.7 22 11.8 NW 24 37 13 20 1010.9 1010.6 0.0
19/12:00pm 29.5 21.7 -4.0 11 14.9 N 28 39 15 21 1010.8 1010.5 0.0
19/11:30am 28.4 21.1 0.2 16 13.4 N 28 43 15 23 1010.8 1010.5 0.0
19/11:04am 29.2 20.2 -3.1 12 14.6 N 35 54 19 29 1010.6 1010.3 0.0
19/11:00am 29.3 19.7 -4.2 11 14.8 N 37 54 20 29 1010.2 1009.9 0.0
19/10:30am 29.5 19.6 -4.0 11 14.9 N 39 57 21 31 1010.1 1009.8 0.0
19/10:23am 29.4 20.0 -2.9 12 14.7 N 37 56 20 30 1009.8 1009.5 0.0
19/10:00am 28.4 18.7 -2.6 13 14.0 N 39 52 21 28 1009.9 1009.6 0.0
19/09:30am 27.3 18.4 -1.6 15 13.2 NNE 35 50 19 27 1009.4 1009.1 0.0
19/09:16am 26.8 17.9 -2.0 15 13.0 NNE 35 54 19 29 1009.3 1009.0 0.0
19/09:00am 25.9 17.1 -1.0 17 12.3 NNE 35 46 19 25 1009.3 1009.0 0.0
19/08:30am 23.9 15.0 -1.8 18 11.4 NNE 35 48 19 26 1009.6 1009.3 0.0
19/08:21am 23.5 15.5 -2.2 18 11.3 NNE 30 48 16 26 1009.7 1009.4 0.0
19/08:00am 22.0 15.5 -2.7 19 10.6 NNE 22 30 12 16 1010.0 1009.7 0.0
19/07:30am 21.2 14.9 -4.0 18 10.5 NNE 20 28 11 15 1009.9 1009.6 0.0
19/07:00am 20.4 14.3 -4.0 19 10.0 NNE 19 24 10 13 1009.4 1009.1 0.0
19/06:30am 19.9 14.1 -4.4 19 9.9 NNE 17 22 9 12 1009.3 1009.0 0.0
19/06:00am 20.2 14.8 -4.8 18 10.1 NNE 15 20 8 11 1009.2 1008.9 0.0
19/05:30am 20.2 14.4 -4.8 18 10.1 NNE 17 20 9 11 1008.9 1008.6 0.0
19/05:00am 19.0 13.8 -5.8 18 9.7 NE 13 17 7 9 1009.3 1009.0 0.0
19/04:30am 19.6 14.0 -6.9 16 10.2 NE 15 19 8 10 1009.4 1009.1 0.0
19/04:00am 20.5 14.8 -7.0 15 10.7 NNE 15 20 8 11 1009.6 1009.3 0.0
19/03:30am 20.0 14.0 -6.5 16 10.3 NE 17 20 9 11 1009.6 1009.3 0.0
19/03:00am 18.7 13.8 -6.8 17 9.7 NNE 11 15 6 8 1010.4 1010.1 0.0
19/02:30am 19.2 13.9 -7.2 16 10.1 NE 13 15 7 8 1011.0 1010.7 0.0
19/02:00am 19.6 14.3 -7.7 15 10.3 NE 13 17 7 9 1011.5 1011.2 0.0
19/01:30am 19.8 14.4 -8.4 14 10.5 NE 13 15 7 8 1012.0 1011.7 0.0
19/01:00am 20.1 14.7 -8.2 14 10.7 NE 13 15 7 8 1012.5 1012.2 0.0
19/12:30am 20.7 15.8 -6.8 15 10.7 NE 11 13 6 7 1012.7 1012.4 0.0
19/12:00am 21.8 16.6 -5.9 15 11.1 NNE 13 15 7 8 1013.0 1012.7 0.0
 
Date/Time
CDT
Temp
°C
App
Temp
°C
Dew
Point
°C
Rel
Hum
%
Delta-T
°C
Wind Press
QNH
hPa
Press
MSL
hPa
Rain since
9am
mm
Dir  Spd
km/h
Gust
km/h
Spd
kts
Gust
kts
18/11:30pm 22.8 17.6 -6.1 14 11.7 NNE 13 17 7 9 1013.1 1012.8 0.0
18/11:00pm 22.5 17.9 -4.5 16 11.2 NNE 11 13 6 7 1013.4 1013.1 0.0
18/10:30pm 22.7 18.1 -4.4 16 11.3 NE 11 13 6 7 1013.4 1013.1 0.0
18/10:00pm 23.0 17.9 -5.0 15 11.6 NE 13 13 7 7 1013.2 1012.9 0.0
18/09:30pm 23.2 18.4 -5.7 14 11.8 NE 11 13 6 7 1013.2 1012.9 0.0
18/09:00pm 24.1 19.3 -6.0 13 12.3 NE 11 13 6 7 1013.0 1012.7 0.0
18/08:30pm 24.8 20.4 -5.5 13 12.6 NE 9 11 5 6 1012.9 1012.6 0.0
18/08:00pm 26.5 22.2 -5.2 12 13.5 NNE 9 9 5 5 1012.6 1012.3 0.0
18/07:30pm 28.2 23.8 -6.3 10 14.6 N 9 13 5 7 1012.3 1012.0 0.0
18/07:00pm 29.3 24.6 -5.4 10 15.1 N 11 17 6 9 1012.2 1011.9 0.0
18/06:30pm 30.1 24.9 -6.2 9 15.6 NW 13 20 7 11 1012.0 1011.7 0.0
18/06:00pm 30.1 24.9 -6.2 9 15.6 N 13 19 7 10 1011.9 1011.6 0.0
18/05:30pm 30.3 25.3 -4.7 10 15.5 NNW 13 20 7 11 1011.9 1011.6 0.0
18/05:00pm 30.1 25.7 -6.2 9 15.6 NNW 9 19 5 10 1012.3 1012.0 0.0
18/04:30pm 29.8 24.3 -5.1 10 15.3 NNW 15 20 8 11 1012.5 1012.2 0.0
18/04:00pm 29.8 25.6 -3.8 11 15.1 NNW 9 19 5 10 1012.6 1012.3 0.0
18/03:30pm 29.5 25.0 -2.9 12 14.7 NNW 11 26 6 14 1013.4 1013.1 0.0
18/03:00pm 28.8 24.7 -3.4 12 14.4 N 9 20 5 11 1013.7 1013.4 0.0
18/02:30pm 29.2 23.7 -2.0 13 14.4 NNE 17 26 9 14 1014.1 1013.8 0.0
18/02:00pm 27.9 23.7 -1.1 15 13.4 NNE 11 20 6 11 1014.8 1014.5 0.0
18/01:30pm 27.2 22.3 -0.8 16 13.0 N 15 26 8 14 1015.1 1014.8 0.0
18/01:00pm 26.6 22.5 -0.4 17 12.5 N 11 20 6 11 1015.7 1015.5 0.0
18/12:30pm 25.8 21.5 1.2 20 11.7 N 13 20 7 11 1016.2 1015.9 0.0
18/12:00pm 25.2 21.1 2.0 22 11.1 NNE 13 20 7 11 1016.6 1016.3 0.0
18/11:30am 24.9 20.8 2.4 23 10.8 NE 13 28 7 15 1016.8 1016.5 0.0
18/11:00am 24.3 20.9 4.1 27 10.0 ENE 11 19 6 10 1017.2 1016.9 0.0
18/10:30am 23.0 19.4 5.0 31 9.0 ENE 13 19 7 10 1017.5 1017.2 0.0
18/10:00am 21.3 17.8 5.6 36 7.9 E 13 19 7 10 1017.6 1017.3 0.0
18/09:30am 20.0 17.0 6.0 40 7.0 E 11 15 6 8 1018.0 1017.7 0.0
18/09:00am 17.7 14.9 6.9 49 5.4 ESE 11 15 6 8 1018.0 1017.7 0.0
18/08:30am 15.9 12.8 7.4 57 4.2 ESE 13 17 7 9 1018.0 1017.7 0.0
18/08:00am 13.9 11.3 7.7 66 3.1 SE 11 13 6 7 1017.8 1017.5 0.0
18/07:30am 11.4 9.3 6.5 72 2.3 SSE 7 9 4 5 1017.5 1017.2 0.0
18/07:00am 9.2 6.7 4.6 73 2.1 SSE 7 7 4 4 1017.2 1016.9 0.0
18/06:30am 9.3 6.7 4.1 70 2.3 SSE 7 9 4 5 1016.8 1016.5 0.0
18/06:00am 10.5 8.0 4.9 68 2.5 SSE 7 9 4 5 1016.7 1016.4 0.0
18/05:30am 11.3 8.5 5.0 65 2.9 S 9 11 5 6 1016.4 1016.1 0.0
18/05:00am 12.4 9.3 5.6 63 3.2 S 11 13 6 7 1016.4 1016.1 0.0
18/04:30am 13.0 9.6 5.7 61 3.4 SSE 13 15 7 8 1016.0 1015.7 0.0

Other Formats:

Comma delimited format used in spreadsheet applications
http://www.bom.gov.au/fwo/IDS60801/IDS60801.95658.axf

JavaScript Object Notation format (JSON) in row-major order
http://www.bom.gov.au/fwo/IDS60801/IDS60801.95658.json